Time;durP1;ratioP1;P1;durP2;ratioP2;P2;SDS_P1;SDS_P2;PMS_P1;PMS_P2;Temp;Humidity;BMP_temperature;BMP_pressure;BME280_temperature;BME280_humidity;BME280_pressure;Samples;Min_cycle;Max_cycle;Signal;HPM_P1;HPM_P2
2021/09/14 00:00:52;;;;;;;21.70;15.27;;;;;;;;;;5014909;28;20038;-63
2021/09/14 00:03:18;;;;;;;22.60;14.85;;;;;;;;;;5015332;28;20030;-63
2021/09/14 00:05:43;;;;;;;27.45;16.45;;;;;;;;;;5014892;28;20092;-63
2021/09/14 00:08:09;;;;;;;26.15;16.35;;;;;;;;;;5015359;28;20100;-62
2021/09/14 00:10:34;;;;;;;25.25;16.45;;;;;;;;;;5014589;28;20113;-63
2021/09/14 00:12:59;;;;;;;24.95;15.82;;;;;;;;;;5015262;28;20048;-63
2021/09/14 00:15:24;;;;;;;21.67;15.38;;;;;;;;;;5014877;28;20134;-63
2021/09/14 00:17:49;;;;;;;24.05;15.18;;;;;;;;;;5015044;28;20045;-63
2021/09/14 00:20:15;;;;;;;23.08;14.88;;;;;;;;;;5014373;28;20050;-63
2021/09/14 00:22:40;;;;;;;25.23;15.75;;;;;;;;;;5014799;28;20093;-63
2021/09/14 00:25:05;;;;;;;26.10;15.10;;;;;;;;;;5014450;28;20496;-63
2021/09/14 00:27:30;;;;;;;23.73;14.02;;;;;;;;;;5013537;28;20018;-63
2021/09/14 00:29:56;;;;;;;24.13;13.70;;;;;;;;;;5014863;28;20025;-63
2021/09/14 00:32:21;;;;;;;22.05;13.82;;;;;;;;;;5013095;28;20030;-62
2021/09/14 00:34:46;;;;;;;21.35;13.52;;;;;;;;;;5014609;28;20029;-63
2021/09/14 00:37:11;;;;;;;19.42;13.55;;;;;;;;;;5013764;28;20040;-63
2021/09/14 00:39:37;;;;;;;21.45;15.15;;;;;;;;;;5014385;28;20040;-63
2021/09/14 00:42:02;;;;;;;29.17;16.58;;;;;;;;;;5014007;28;20069;-63
2021/09/14 00:44:27;;;;;;;28.88;17.55;;;;;;;;;;5014462;28;20033;-63
2021/09/14 00:46:52;;;;;;;23.92;15.95;;;;;;;;;;5014034;28;20026;-63
2021/09/14 00:49:18;;;;;;;26.92;15.43;;;;;;;;;;5014314;28;20025;-63
2021/09/14 00:51:43;;;;;;;21.15;15.00;;;;;;;;;;5012647;28;20033;-63
2021/09/14 00:54:15;;;;;;;24.27;14.77;;;;;;;;;;5013241;28;20028;-63
2021/09/14 00:56:40;;;;;;;23.45;16.58;;;;;;;;;;5013013;28;20397;-63
2021/09/14 00:59:05;;;;;;;25.73;17.35;;;;;;;;;;5014078;28;20022;-63
2021/09/14 01:01:31;;;;;;;30.67;17.55;;;;;;;;;;5013734;28;20034;-63
2021/09/14 01:03:56;;;;;;;28.67;15.88;;;;;;;;;;5014014;28;20018;-63
2021/09/14 01:06:21;;;;;;;25.65;16.63;;;;;;;;;;5012349;28;20042;-63
2021/09/14 01:08:46;;;;;;;26.05;15.90;;;;;;;;;;5012559;28;20373;-63
2021/09/14 01:11:12;;;;;;;24.95;17.65;;;;;;;;;;5012351;28;20030;-63
2021/09/14 01:13:37;;;;;;;31.80;16.98;;;;;;;;;;5012905;28;20476;-63
2021/09/14 01:16:03;;;;;;;23.70;17.23;;;;;;;;;;5012216;28;20025;-63
2021/09/14 01:18:28;;;;;;;27.42;15.07;;;;;;;;;;5013871;28;20491;-63
2021/09/14 01:20:53;;;;;;;28.17;18.75;;;;;;;;;;5013385;28;20045;-63
2021/09/14 01:23:18;;;;;;;34.28;17.85;;;;;;;;;;5013696;28;20538;-62
2021/09/14 01:25:44;;;;;;;25.55;18.23;;;;;;;;;;5013131;28;20048;-63
2021/09/14 01:28:09;;;;;;;26.60;17.65;;;;;;;;;;5013639;28;20097;-63
2021/09/14 01:30:34;;;;;;;26.45;17.15;;;;;;;;;;5013380;28;20384;-63
2021/09/14 01:32:59;;;;;;;27.10;18.10;;;;;;;;;;5013563;28;20460;-63
2021/09/14 01:35:25;;;;;;;24.58;16.38;;;;;;;;;;5013134;28;20443;-63
2021/09/14 01:37:51;;;;;;;24.63;16.88;;;;;;;;;;5013822;28;20092;-63
2021/09/14 01:40:16;;;;;;;30.67;17.85;;;;;;;;;;5013344;28;20439;-63
2021/09/14 01:42:41;;;;;;;31.00;19.70;;;;;;;;;;5012425;28;20105;-63
2021/09/14 01:45:07;;;;;;;24.58;16.77;;;;;;;;;;5013119;28;20061;-63
2021/09/14 01:47:33;;;;;;;29.38;18.25;;;;;;;;;;5013460;28;20025;-63
2021/09/14 01:49:58;;;;;;;29.50;18.73;;;;;;;;;;5013388;28;20384;-63
2021/09/14 01:52:26;;;;;;;27.95;17.95;;;;;;;;;;5012968;28;20045;-63
2021/09/14 01:54:51;;;;;;;28.02;17.75;;;;;;;;;;5013482;28;20036;-62
2021/09/14 01:57:22;;;;;;;25.52;16.70;;;;;;;;;;5012874;28;20029;-64
2021/09/14 01:59:50;;;;;;;28.48;18.17;;;;;;;;;;5013190;28;20461;-64
2021/09/14 02:58:46;;;;;;;43.70;25.00;;;;;;;;;;4993156;28;20470;-64
2021/09/14 03:01:12;;;;;;;36.95;22.40;;;;;;;;;;4992373;28;20048;-64
2021/09/14 03:03:40;;;;;;;33.78;21.60;;;;;;;;;;4993211;28;20019;-64
2021/09/14 03:06:05;;;;;;;32.53;19.90;;;;;;;;;;4992668;28;20031;-64
2021/09/14 03:08:32;;;;;;;31.00;17.98;;;;;;;;;;4993068;28;20354;-64
2021/09/14 03:10:58;;;;;;;26.80;16.23;;;;;;;;;;4992403;28;20105;-64
2021/09/14 03:13:25;;;;;;;24.90;16.65;;;;;;;;;;4993013;28;20018;-64
2021/09/14 03:15:50;;;;;;;36.22;21.27;;;;;;;;;;4992480;28;20465;-64
2021/09/14 03:18:15;;;;;;;40.35;23.38;;;;;;;;;;4993139;28;20029;-63
2021/09/14 03:20:40;;;;;;;40.60;24.08;;;;;;;;;;4995170;28;20068;-62
2021/09/14 03:23:06;;;;;;;44.55;24.17;;;;;;;;;;4996546;28;20117;-63
2021/09/14 03:25:31;;;;;;;42.72;26.50;;;;;;;;;;4995777;28;20061;-64
2021/09/14 03:27:56;;;;;;;42.50;27.30;;;;;;;;;;4995127;28;20022;-62
2021/09/14 03:30:21;;;;;;;41.35;25.73;;;;;;;;;;4998725;28;20037;-62
2021/09/14 03:32:47;;;;;;;42.97;24.73;;;;;;;;;;5016098;28;20018;-64
2021/09/14 03:35:12;;;;;;;32.88;21.02;;;;;;;;;;5015655;28;20033;-64
2021/09/14 03:37:37;;;;;;;41.35;21.65;;;;;;;;;;5015852;28;20025;-64
2021/09/14 03:40:03;;;;;;;35.17;22.23;;;;;;;;;;5015024;28;20026;-64
2021/09/14 03:42:28;;;;;;;37.22;24.80;;;;;;;;;;4996170;28;20041;-64
2021/09/14 03:44:53;;;;;;;42.20;23.67;;;;;;;;;;4996000;28;20049;-62
2021/09/14 03:47:18;;;;;;;40.88;23.80;;;;;;;;;;5014221;28;20030;-64
2021/09/14 03:49:44;;;;;;;37.33;23.38;;;;;;;;;;5014466;28;20072;-64
2021/09/14 03:52:09;;;;;;;35.95;22.63;;;;;;;;;;4997610;28;20117;-64
2021/09/14 03:54:34;;;;;;;44.83;26.00;;;;;;;;;;4995876;28;20482;-63
2021/09/14 03:56:59;;;;;;;45.50;24.98;;;;;;;;;;5011449;28;20121;-63
2021/09/14 03:59:25;;;;;;;38.55;23.67;;;;;;;;;;5015301;28;20109;-63
2021/09/14 04:01:54;;;;;;;42.83;24.90;;;;;;;;;;4999957;28;20031;-63
2021/09/14 04:04:49;;;;;;;35.53;22.48;;;;;;;;;;4996107;28;20093;-63
2021/09/14 04:09:34;;;;;;;34.58;23.42;;;;;;;;;;4995466;28;20046;-63
2021/09/14 04:12:00;;;;;;;31.58;21.17;;;;;;;;;;4994837;28;20050;-63
2021/09/14 04:14:28;;;;;;;36.05;23.08;;;;;;;;;;4994100;28;20026;-63
2021/09/14 04:16:53;;;;;;;43.95;25.88;;;;;;;;;;4993779;28;20390;-63
2021/09/14 04:19:18;;;;;;;44.35;26.33;;;;;;;;;;4995253;28;20029;-63
2021/09/14 04:21:44;;;;;;;43.03;27.10;;;;;;;;;;4994801;28;20524;-63
2021/09/14 04:24:09;;;;;;;44.78;26.60;;;;;;;;;;4995074;28;20046;-63
2021/09/14 04:26:34;;;;;;;34.78;22.65;;;;;;;;;;4994568;28;20393;-63
2021/09/14 04:29:00;;;;;;;40.22;23.00;;;;;;;;;;4994829;28;20069;-63
2021/09/14 04:31:25;;;;;;;35.50;23.15;;;;;;;;;;5005738;28;20053;-63
2021/09/14 04:33:50;;;;;;;36.60;22.10;;;;;;;;;;5014637;28;20029;-63
2021/09/14 04:36:15;;;;;;;51.40;26.88;;;;;;;;;;5004020;28;20420;-63
2021/09/14 04:38:42;;;;;;;40.28;23.88;;;;;;;;;;5000580;28;20510;-63
2021/09/14 04:41:07;;;;;;;33.70;22.92;;;;;;;;;;5013930;28;20057;-64
2021/09/14 04:43:32;;;;;;;31.75;21.65;;;;;;;;;;5014261;28;20028;-63
2021/09/14 04:45:57;;;;;;;31.45;20.45;;;;;;;;;;5013899;28;20057;-64
2021/09/14 04:48:23;;;;;;;38.10;21.40;;;;;;;;;;5014163;28;20040;-63
2021/09/14 04:50:48;;;;;;;27.58;19.98;;;;;;;;;;4996033;28;20088;-62
2021/09/14 04:53:13;;;;;;;32.33;20.10;;;;;;;;;;5014153;28;20025;-62
2021/09/14 04:55:38;;;;;;;33.50;21.08;;;;;;;;;;5013656;28;20460;-63
2021/09/14 04:58:04;;;;;;;33.67;20.00;;;;;;;;;;5014165;28;20484;-62
2021/09/14 05:00:29;;;;;;;34.83;20.27;;;;;;;;;;5013645;28;20404;-62
2021/09/14 05:02:54;;;;;;;37.67;24.48;;;;;;;;;;5014161;28;20333;-63
2021/09/14 05:05:20;;;;;;;43.67;25.92;;;;;;;;;;5013658;28;20061;-63
2021/09/14 05:07:45;;;;;;;38.13;23.23;;;;;;;;;;5014197;28;20018;-64
2021/09/14 05:10:10;;;;;;;36.78;21.70;;;;;;;;;;5013375;28;20103;-64
2021/09/14 05:12:35;;;;;;;32.17;20.13;;;;;;;;;;5013918;28;20045;-64
2021/09/14 05:15:01;;;;;;;34.72;21.52;;;;;;;;;;5013563;28;20022;-64
2021/09/14 05:17:26;;;;;;;30.45;20.98;;;;;;;;;;5013591;28;20495;-62
2021/09/14 05:19:51;;;;;;;30.58;18.63;;;;;;;;;;5013733;28;20036;-62
2021/09/14 05:22:20;;;;;;;32.55;20.98;;;;;;;;;;5013318;28;20129;-64
2021/09/14 05:24:45;;;;;;;30.05;19.20;;;;;;;;;;5013537;28;20048;-64
2021/09/14 05:27:10;;;;;;;28.60;20.08;;;;;;;;;;5013155;28;20034;-64
2021/09/14 05:29:36;;;;;;;46.20;22.33;;;;;;;;;;5013630;28;20428;-64
2021/09/14 05:32:01;;;;;;;47.45;21.08;;;;;;;;;;5013190;28;20408;-64
2021/09/14 05:34:26;;;;;;;37.22;19.20;;;;;;;;;;5013413;28;20427;-63
2021/09/14 05:36:51;;;;;;;33.40;19.67;;;;;;;;;;5012965;28;20041;-62
2021/09/14 05:39:17;;;;;;;39.22;18.17;;;;;;;;;;5013382;28;20037;-65
2021/09/14 05:41:42;;;;;;;44.67;19.42;;;;;;;;;;5012707;28;20034;-63
2021/09/14 05:44:07;;;;;;;27.35;16.55;;;;;;;;;;5013389;28;20415;-64
2021/09/14 05:46:32;;;;;;;26.52;14.45;;;;;;;;;;5013143;28;20357;-64
2021/09/14 05:48:58;;;;;;;27.88;13.52;;;;;;;;;;5013317;28;20022;-64
2021/09/14 05:51:23;;;;;;;20.88;12.43;;;;;;;;;;5012914;28;20034;-65
2021/09/14 05:53:48;;;;;;;21.38;12.43;;;;;;;;;;5013470;28;20109;-63
2021/09/14 05:56:13;;;;;;;21.33;12.85;;;;;;;;;;5012943;28;20156;-63
2021/09/14 05:58:39;;;;;;;26.00;12.68;;;;;;;;;;5013460;28;20089;-64
2021/09/14 06:01:04;;;;;;;18.13;11.73;;;;;;;;;;5011352;28;20033;-63
2021/09/14 06:03:29;;;;;;;22.92;12.02;;;;;;;;;;5013259;28;20030;-63
2021/09/14 06:05:55;;;;;;;26.08;13.95;;;;;;;;;;5012866;28;20501;-63
2021/09/14 06:08:21;;;;;;;21.85;11.68;;;;;;;;;;5013162;28;20423;-63
2021/09/14 06:10:47;;;;;;;25.05;12.98;;;;;;;;;;5012456;28;20125;-63
2021/09/14 06:13:12;;;;;;;21.10;11.80;;;;;;;;;;5013226;28;20139;-63
2021/09/14 06:15:37;;;;;;;20.33;12.00;;;;;;;;;;5012691;28;20109;-64
2021/09/14 06:18:03;;;;;;;25.40;12.18;;;;;;;;;;5013466;28;20026;-64
2021/09/14 06:20:28;;;;;;;25.58;11.85;;;;;;;;;;5012608;28;20397;-63
2021/09/14 06:22:53;;;;;;;18.77;12.27;;;;;;;;;;5013011;28;20026;-63
2021/09/14 06:25:18;;;;;;;15.82;11.45;;;;;;;;;;5012671;28;20029;-63
2021/09/14 06:27:44;;;;;;;15.45;11.45;;;;;;;;;;5012834;28;20022;-63
2021/09/14 06:30:10;;;;;;;16.50;11.48;;;;;;;;;;5012714;28;20076;-63
2021/09/14 06:32:35;;;;;;;17.30;10.98;;;;;;;;;;5012988;28;20014;-63
2021/09/14 06:35:01;;;;;;;16.77;11.80;;;;;;;;;;5012605;28;20022;-64
2021/09/14 06:37:26;;;;;;;16.70;10.80;;;;;;;;;;5012817;28;20406;-63
2021/09/14 06:39:51;;;;;;;14.27;11.25;;;;;;;;;;5012687;28;20026;-63
2021/09/14 06:42:16;;;;;;;15.20;11.30;;;;;;;;;;5012430;28;20042;-63
2021/09/14 06:44:41;;;;;;;17.33;11.50;;;;;;;;;;5012245;28;20018;-63
2021/09/14 06:47:07;;;;;;;17.90;11.20;;;;;;;;;;5012280;28;20038;-63
2021/09/14 06:49:32;;;;;;;14.32;11.43;;;;;;;;;;5012858;28;20028;-63
2021/09/14 06:51:57;;;;;;;15.82;11.55;;;;;;;;;;5012311;28;20369;-63
2021/09/14 06:54:23;;;;;;;15.88;11.80;;;;;;;;;;5013406;28;20023;-63
2021/09/14 06:56:48;;;;;;;15.52;11.90;;;;;;;;;;5016150;28;20034;-63
2021/09/14 06:59:13;;;;;;;19.65;12.05;;;;;;;;;;5016240;28;20030;-63
2021/09/14 07:01:38;;;;;;;15.75;11.80;;;;;;;;;;5015944;28;20042;-63
2021/09/14 07:04:03;;;;;;;17.35;11.30;;;;;;;;;;5015004;28;20033;-64
2021/09/14 07:06:29;;;;;;;16.27;11.82;;;;;;;;;;5015933;28;20108;-63
2021/09/14 07:08:54;;;;;;;16.10;11.23;;;;;;;;;;5016120;28;20072;-63
2021/09/14 07:11:19;;;;;;;14.95;10.70;;;;;;;;;;5015706;28;20050;-63
2021/09/14 07:13:45;;;;;;;17.80;11.30;;;;;;;;;;5016250;28;20026;-63
2021/09/14 07:16:10;;;;;;;16.85;12.38;;;;;;;;;;5015620;28;20033;-63
2021/09/14 07:18:38;;;;;;;19.52;13.23;;;;;;;;;;5015838;28;20057;-63
2021/09/14 07:21:03;;;;;;;16.95;12.40;;;;;;;;;;5015552;28;20073;-63
2021/09/14 07:23:29;;;;;;;17.58;12.45;;;;;;;;;;5015958;28;20423;-63
2021/09/14 07:25:54;;;;;;;19.95;12.27;;;;;;;;;;5015482;28;20018;-63
2021/09/14 07:28:19;;;;;;;19.58;12.65;;;;;;;;;;5015747;28;20357;-63
2021/09/14 07:30:45;;;;;;;29.63;12.52;;;;;;;;;;5015466;28;20117;-62
2021/09/14 07:33:10;;;;;;;18.23;12.18;;;;;;;;;;5015735;28;20113;-63
2021/09/14 07:35:35;;;;;;;24.88;11.73;;;;;;;;;;5015615;28;20076;-64
2021/09/14 07:38:00;;;;;;;20.58;12.23;;;;;;;;;;5015620;28;20060;-62
2021/09/14 07:40:26;;;;;;;22.42;12.65;;;;;;;;;;5015070;28;20088;-62
2021/09/14 07:42:53;;;;;;;68.20;16.23;;;;;;;;;;5014436;28;20036;-62
2021/09/14 07:45:18;;;;;;;52.25;14.57;;;;;;;;;;5015408;28;20028;-62
2021/09/14 07:47:43;;;;;;;42.13;13.60;;;;;;;;;;5015429;28;20018;-62
2021/09/14 07:50:09;;;;;;;35.92;11.98;;;;;;;;;;5015126;28;20511;-64
2021/09/14 07:52:34;;;;;;;24.00;12.45;;;;;;;;;;5015500;28;20109;-62
2021/09/14 07:54:59;;;;;;;20.25;11.35;;;;;;;;;;5015220;28;20030;-62
2021/09/14 07:57:24;;;;;;;22.55;11.82;;;;;;;;;;5013553;28;20072;-63
2021/09/14 07:59:50;;;;;;;17.20;11.30;;;;;;;;;;5015131;28;20037;-63
2021/09/14 08:02:15;;;;;;;21.13;10.65;;;;;;;;;;5013772;28;20117;-62
2021/09/14 08:04:40;;;;;;;19.02;11.77;;;;;;;;;;5015181;28;20022;-63
2021/09/14 08:07:05;;;;;;;15.43;11.30;;;;;;;;;;5014497;28;20026;-62
2021/09/14 08:09:31;;;;;;;21.60;11.60;;;;;;;;;;5014678;28;20064;-62
2021/09/14 08:11:57;;;;;;;20.58;11.70;;;;;;;;;;5014706;28;20117;-62
2021/09/14 08:14:22;;;;;;;23.13;11.45;;;;;;;;;;5015238;28;20105;-62
2021/09/14 08:16:47;;;;;;;23.75;11.13;;;;;;;;;;5013427;28;20034;-63
2021/09/14 08:19:12;;;;;;;24.38;11.85;;;;;;;;;;5014970;28;20018;-62
2021/09/14 08:21:38;;;;;;;18.30;11.85;;;;;;;;;;5014445;28;20088;-62
2021/09/14 08:24:03;;;;;;;17.40;10.43;;;;;;;;;;5014785;28;20017;-62
2021/09/14 08:26:28;;;;;;;21.75;11.02;;;;;;;;;;5014506;28;20057;-63
2021/09/14 08:28:53;;;;;;;20.80;10.50;;;;;;;;;;5015008;28;20366;-63
2021/09/14 08:31:19;;;;;;;25.80;10.52;;;;;;;;;;5014611;28;20033;-63
2021/09/14 08:33:44;;;;;;;20.48;10.43;;;;;;;;;;5014795;28;20107;-63
2021/09/14 08:36:09;;;;;;;25.33;10.35;;;;;;;;;;5014408;28;20038;-64
2021/09/14 08:38:34;;;;;;;16.20;10.65;;;;;;;;;;5014341;28;20022;-63
2021/09/14 08:41:00;;;;;;;22.70;9.93;;;;;;;;;;5014192;28;20034;-63
2021/09/14 08:43:25;;;;;;;14.98;9.55;;;;;;;;;;5014807;28;20029;-63
2021/09/14 08:45:50;;;;;;;19.70;9.38;;;;;;;;;;5014323;28;20381;-63
2021/09/14 08:48:16;;;;;;;21.65;9.82;;;;;;;;;;5014671;28;20022;-63
2021/09/14 08:50:42;;;;;;;45.03;11.75;;;;;;;;;;5013894;28;20037;-63
2021/09/14 08:53:07;;;;;;;54.00;11.73;;;;;;;;;;5013057;28;20080;-63
2021/09/14 08:55:34;;;;;;;48.67;11.60;;;;;;;;;;5013987;28;20388;-62
2021/09/14 08:57:59;;;;;;;32.67;10.20;;;;;;;;;;5013123;28;20040;-62
2021/09/14 09:00:31;;;;;;;24.17;9.43;;;;;;;;;;5014049;28;20898;-61
2021/09/14 09:02:56;;;;;;;17.63;8.77;;;;;;;;;;5014521;28;20042;-62
2021/09/14 09:05:31;;;;;;;22.40;9.93;;;;;;;;;;5013947;28;20108;-62
2021/09/14 09:07:56;;;;;;;22.38;9.07;;;;;;;;;;5014187;28;20483;-62
2021/09/14 09:10:21;;;;;;;22.05;9.85;;;;;;;;;;5012250;28;20046;-62
2021/09/14 09:12:47;;;;;;;21.63;10.02;;;;;;;;;;5012755;28;20049;-63
2021/09/14 09:15:22;;;;;;;28.33;10.00;;;;;;;;;;5013717;28;20026;-63
2021/09/14 09:17:58;;;;;;;18.13;8.65;;;;;;;;;;5013181;28;20026;-63
2021/09/14 09:20:23;;;;;;;25.42;8.75;;;;;;;;;;5013548;28;20116;-62
2021/09/14 09:22:55;;;;;;;33.08;8.55;;;;;;;;;;5013740;28;20121;-63
2021/09/14 09:25:24;;;;;;;25.33;9.23;;;;;;;;;;5013657;28;20405;-63
2021/09/14 09:27:50;;;;;;;22.27;8.55;;;;;;;;;;5013994;28;20049;-64
2021/09/14 09:30:17;;;;;;;16.45;8.07;;;;;;;;;;5013478;28;20017;-63
2021/09/14 09:32:44;;;;;;;26.48;7.93;;;;;;;;;;5013728;28;20018;-63
2021/09/14 09:35:09;;;;;;;19.10;7.32;;;;;;;;;;5013343;28;20376;-64
2021/09/14 09:37:34;;;;;;;42.85;9.45;;;;;;;;;;5013883;28;20085;-63
2021/09/14 09:40:00;;;;;;;35.95;8.85;;;;;;;;;;5013721;28;20483;-63
2021/09/14 09:42:28;;;;;;;32.42;9.20;;;;;;;;;;5013030;28;20082;-64
2021/09/14 09:44:54;;;;;;;30.27;8.88;;;;;;;;;;5013631;28;20022;-64
2021/09/14 09:47:20;;;;;;;36.47;8.60;;;;;;;;;;5012905;28;20038;-61
2021/09/14 09:49:47;;;;;;;32.15;8.68;;;;;;;;;;5012426;28;20030;-63
2021/09/14 09:52:12;;;;;;;35.70;8.05;;;;;;;;;;5011528;28;20045;-63
2021/09/14 09:54:37;;;;;;;42.67;8.50;;;;;;;;;;5012069;28;20022;-63
2021/09/14 09:57:02;;;;;;;30.13;7.82;;;;;;;;;;5011516;28;20044;-63
2021/09/14 09:59:28;;;;;;;33.28;8.82;;;;;;;;;;5013155;28;20105;-63
2021/09/14 10:02:02;;;;;;;27.07;7.33;;;;;;;;;;5012641;28;20122;-63
2021/09/14 10:04:27;;;;;;;21.95;7.05;;;;;;;;;;5011907;28;20256;-62
2021/09/14 10:06:53;;;;;;;24.52;7.30;;;;;;;;;;5012700;28;20080;-63
2021/09/14 10:09:20;;;;;;;21.20;7.25;;;;;;;;;;5012944;28;20037;-63
2021/09/14 10:11:55;;;;;;;19.55;7.18;;;;;;;;;;5012579;28;20038;-63
2021/09/14 10:14:20;;;;;;;22.75;7.38;;;;;;;;;;5012973;28;20588;-63
2021/09/14 10:16:46;;;;;;;20.58;7.00;;;;;;;;;;5011164;28;20030;-63
2021/09/14 10:19:14;;;;;;;21.83;7.35;;;;;;;;;;5013080;28;20021;-63
2021/09/14 10:21:58;;;;;;;25.60;6.70;;;;;;;;;;5012578;28;20038;-63
2021/09/14 10:24:24;;;;;;;18.15;6.93;;;;;;;;;;5012962;28;20017;-63
2021/09/14 10:26:49;;;;;;;19.08;7.50;;;;;;;;;;5012449;28;20138;-63
2021/09/14 10:29:16;;;;;;;18.67;6.97;;;;;;;;;;5015599;28;20049;-63
2021/09/14 10:31:41;;;;;;;13.80;7.40;;;;;;;;;;5016145;28;20026;-63
2021/09/14 10:34:13;;;;;;;12.02;6.60;;;;;;;;;;5017009;28;20041;-62
2021/09/14 10:36:40;;;;;;;16.55;7.82;;;;;;;;;;5016353;28;20030;-63
2021/09/14 10:39:22;;;;;;;12.88;7.28;;;;;;;;;;5016694;28;20053;-63
2021/09/14 10:41:49;;;;;;;11.52;7.07;;;;;;;;;;5016577;28;20041;-63
2021/09/14 10:44:22;;;;;;;11.00;7.75;;;;;;;;;;5017092;28;20112;-63
2021/09/14 10:46:47;;;;;;;11.20;7.82;;;;;;;;;;5016366;28;20465;-63
2021/09/14 10:49:13;;;;;;;15.05;7.07;;;;;;;;;;5015348;28;20033;-63
2021/09/14 10:51:39;;;;;;;14.07;6.35;;;;;;;;;;5016135;28;20034;-63
2021/09/14 10:54:04;;;;;;;8.80;5.90;;;;;;;;;;5016360;28;20025;-63
2021/09/14 10:56:29;;;;;;;15.48;6.28;;;;;;;;;;5015939;28;20041;-63
2021/09/14 10:58:55;;;;;;;21.08;7.00;;;;;;;;;;5016555;28;20034;-63
2021/09/14 11:01:24;;;;;;;23.55;6.78;;;;;;;;;;5015874;28;20034;-63
2021/09/14 11:03:50;;;;;;;22.80;6.73;;;;;;;;;;5016327;28;20100;-63
2021/09/14 11:06:15;;;;;;;21.88;6.05;;;;;;;;;;5015837;28;20058;-64
2021/09/14 11:08:45;;;;;;;17.60;6.28;;;;;;;;;;5015995;28;20100;-64
2021/09/14 11:11:10;;;;;;;17.58;6.38;;;;;;;;;;5014660;28;20074;-64
2021/09/14 11:13:35;;;;;;;18.00;6.97;;;;;;;;;;5015868;28;20037;-63
2021/09/14 11:16:01;;;;;;;24.83;6.60;;;;;;;;;;5014904;28;20029;-63
2021/09/14 11:18:29;;;;;;;23.92;5.88;;;;;;;;;;5018170;28;20106;-63
2021/09/14 11:21:00;;;;;;;19.65;6.32;;;;;;;;;;5017769;28;20492;-63
2021/09/14 11:23:25;;;;;;;20.40;6.13;;;;;;;;;;5017322;28;20018;-63
2021/09/14 11:25:53;;;;;;;20.27;6.20;;;;;;;;;;5015661;28;20491;-63
2021/09/14 11:28:19;;;;;;;17.73;5.85;;;;;;;;;;5016282;28;20026;-63
2021/09/14 11:30:57;;;;;;;18.13;6.40;;;;;;;;;;5015764;28;20056;-63
2021/09/14 11:33:23;;;;;;;18.55;6.43;;;;;;;;;;5014425;28;20089;-62
2021/09/14 11:35:48;;;;;;;15.63;6.32;;;;;;;;;;5015398;28;20050;-63
2021/09/14 11:38:14;;;;;;;24.40;6.35;;;;;;;;;;5014805;28;20018;-62
2021/09/14 11:40:47;;;;;;;24.67;6.10;;;;;;;;;;5014699;28;20531;-64
2021/09/14 11:43:16;;;;;;;32.05;6.65;;;;;;;;;;5015666;28;20022;-63
2021/09/14 11:45:41;;;;;;;22.33;6.47;;;;;;;;;;5015339;28;20030;-63
2021/09/14 11:48:14;;;;;;;31.45;6.47;;;;;;;;;;5015528;28;20607;-63
2021/09/14 11:50:39;;;;;;;23.05;6.55;;;;;;;;;;5013944;28;20105;-63
2021/09/14 11:53:17;;;;;;;26.40;6.80;;;;;;;;;;5015421;28;20101;-63
2021/09/14 11:55:45;;;;;;;8.60;5.05;;;;;;;;;;5014981;28;20259;-63
2021/09/14 11:58:11;;;;;;;26.77;6.22;;;;;;;;;;5014029;28;20045;-63
2021/09/14 12:00:40;;;;;;;21.08;5.47;;;;;;;;;;5013590;28;20465;-64
2021/09/14 12:03:05;;;;;;;9.35;5.10;;;;;;;;;;5015186;28;20028;-64
2021/09/14 12:05:32;;;;;;;7.38;5.13;;;;;;;;;;5015000;28;20108;-64
2021/09/14 12:07:57;;;;;;;8.82;5.25;;;;;;;;;;5015056;28;20453;-64
2021/09/14 12:10:23;;;;;;;20.98;6.82;;;;;;;;;;5014547;28;20125;-64
2021/09/14 12:12:52;;;;;;;22.50;6.18;;;;;;;;;;5015074;28;20014;-64
2021/09/14 12:15:17;;;;;;;24.40;6.80;;;;;;;;;;5014547;28;20018;-64
2021/09/14 12:17:43;;;;;;;16.67;6.60;;;;;;;;;;5015108;28;20510;-64
2021/09/14 12:20:08;;;;;;;16.75;5.95;;;;;;;;;;5013307;28;20026;-64
2021/09/14 12:22:33;;;;;;;26.17;5.80;;;;;;;;;;5015283;28;20025;-64
2021/09/14 12:24:59;;;;;;;20.43;6.60;;;;;;;;;;5014887;28;20423;-64
2021/09/14 12:27:24;;;;;;;15.95;5.53;;;;;;;;;;5014081;28;20272;-64
2021/09/14 12:29:49;;;;;;;23.10;6.10;;;;;;;;;;5014616;28;20105;-64
2021/09/14 12:32:14;;;;;;;26.77;6.47;;;;;;;;;;5014481;28;20026;-64
2021/09/14 12:34:39;;;;;;;27.75;6.25;;;;;;;;;;5014811;28;20103;-64
2021/09/14 12:37:05;;;;;;;16.52;6.10;;;;;;;;;;5013881;28;20365;-64
2021/09/14 12:39:30;;;;;;;24.42;7.00;;;;;;;;;;5014404;28;20476;-64
2021/09/14 12:41:55;;;;;;;19.25;5.78;;;;;;;;;;5014284;28;20469;-64
2021/09/14 12:44:20;;;;;;;17.77;5.55;;;;;;;;;;5014554;28;20483;-64
2021/09/14 12:46:46;;;;;;;18.65;6.57;;;;;;;;;;5014218;28;20475;-64
2021/09/14 12:49:11;;;;;;;18.85;6.00;;;;;;;;;;5014559;28;20479;-64
2021/09/14 12:51:36;;;;;;;23.30;6.15;;;;;;;;;;5013387;28;20144;-64
2021/09/14 12:54:02;;;;;;;20.73;6.35;;;;;;;;;;5014111;28;20033;-64
2021/09/14 12:56:27;;;;;;;19.85;6.43;;;;;;;;;;5014081;28;20133;-64
2021/09/14 12:58:52;;;;;;;20.10;5.78;;;;;;;;;;5013974;28;20032;-64
2021/09/14 13:01:17;;;;;;;28.88;5.80;;;;;;;;;;5012511;28;20045;-64
2021/09/14 13:03:43;;;;;;;26.95;7.35;;;;;;;;;;5014349;28;20101;-64
2021/09/14 13:06:08;;;;;;;23.33;6.30;;;;;;;;;;5013687;28;20373;-64
2021/09/14 13:08:34;;;;;;;11.00;4.80;;;;;;;;;;5014209;28;20113;-64
2021/09/14 13:10:59;;;;;;;16.33;5.57;;;;;;;;;;5013390;28;20065;-64
2021/09/14 13:16:11;;;;;;;11.07;5.10;;;;;;;;;;5013547;28;20044;-65
2021/09/14 13:18:36;;;;;;;10.55;5.20;;;;;;;;;;5013800;28;20476;-64
2021/09/14 13:21:02;;;;;;;7.53;4.78;;;;;;;;;;5013314;28;20084;-63
2021/09/14 13:23:27;;;;;;;9.88;5.32;;;;;;;;;;5013708;28;20030;-63
2021/09/14 13:25:52;;;;;;;7.60;4.47;;;;;;;;;;5013273;28;20044;-63
2021/09/14 13:28:18;;;;;;;7.28;4.82;;;;;;;;;;5013549;28;20028;-63
2021/09/14 13:30:43;;;;;;;10.35;5.07;;;;;;;;;;5013226;28;20117;-62
2021/09/14 13:33:08;;;;;;;6.45;4.55;;;;;;;;;;5013601;28;20104;-63
2021/09/14 13:35:33;;;;;;;10.02;4.95;;;;;;;;;;5013374;28;20054;-63
2021/09/14 13:37:59;;;;;;;7.90;4.53;;;;;;;;;;5013814;28;20037;-64
2021/09/14 13:40:24;;;;;;;7.90;4.63;;;;;;;;;;5013338;28;20045;-64
2021/09/14 13:42:56;;;;;;;10.85;5.57;;;;;;;;;;5014174;28;20041;-63
2021/09/14 13:48:05;;;;;;;8.65;4.63;;;;;;;;;;5013839;28;20049;-63
2021/09/14 13:50:30;;;;;;;12.77;4.70;;;;;;;;;;5011980;28;20521;-63
2021/09/14 13:52:56;;;;;;;8.52;5.00;;;;;;;;;;5013461;28;20538;-63
2021/09/14 13:55:21;;;;;;;6.47;5.10;;;;;;;;;;5013152;28;20044;-66
2021/09/14 13:57:46;;;;;;;8.50;4.82;;;;;;;;;;5013534;28;20461;-63
2021/09/14 14:00:12;;;;;;;11.40;4.60;;;;;;;;;;5012921;28;20061;-63
2021/09/14 14:02:37;;;;;;;7.32;5.10;;;;;;;;;;5013042;28;20030;-63
2021/09/14 14:05:02;;;;;;;8.30;4.90;;;;;;;;;;5011323;28;20104;-62
2021/09/14 14:07:28;;;;;;;6.57;4.75;;;;;;;;;;5013220;28;20014;-63
2021/09/14 14:09:53;;;;;;;10.52;5.45;;;;;;;;;;5012883;28;20041;-62
2021/09/14 14:12:18;;;;;;;10.13;5.32;;;;;;;;;;5012621;28;20088;-63
2021/09/14 14:14:44;;;;;;;12.02;5.30;;;;;;;;;;5012029;28;20026;-63
2021/09/14 14:17:09;;;;;;;7.70;4.82;;;;;;;;;;5012513;28;20080;-63
2021/09/14 14:19:34;;;;;;;9.05;5.30;;;;;;;;;;5012863;28;20033;-63
2021/09/14 14:21:59;;;;;;;6.55;4.90;;;;;;;;;;5011114;28;20136;-63
2021/09/14 14:24:25;;;;;;;8.88;4.63;;;;;;;;;;5012792;28;20483;-63
2021/09/14 14:26:50;;;;;;;10.85;5.00;;;;;;;;;;5011043;28;20034;-63
2021/09/14 14:29:15;;;;;;;9.32;4.95;;;;;;;;;;5012949;28;20022;-63
2021/09/14 14:31:40;;;;;;;7.28;4.90;;;;;;;;;;5012426;28;20038;-63
2021/09/14 14:34:06;;;;;;;6.85;4.82;;;;;;;;;;5011815;28;20380;-63
2021/09/14 14:36:31;;;;;;;7.28;4.70;;;;;;;;;;5012485;28;20041;-63
2021/09/14 14:38:56;;;;;;;9.00;4.70;;;;;;;;;;5010696;28;20447;-63
2021/09/14 14:41:22;;;;;;;7.47;4.55;;;;;;;;;;5011774;28;20514;-63
2021/09/14 14:43:47;;;;;;;6.93;4.80;;;;;;;;;;5013031;28;20032;-63
2021/09/14 14:46:12;;;;;;;8.02;4.78;;;;;;;;;;5012585;28;20030;-63
2021/09/14 14:48:37;;;;;;;9.55;5.10;;;;;;;;;;5012961;28;20014;-63
2021/09/14 14:51:03;;;;;;;7.38;4.82;;;;;;;;;;5012385;28;20467;-63
2021/09/14 14:53:28;;;;;;;7.60;4.70;;;;;;;;;;5012587;28;20468;-63
2021/09/14 14:55:53;;;;;;;8.37;5.03;;;;;;;;;;5012270;28;20473;-63
2021/09/14 14:58:18;;;;;;;10.73;4.70;;;;;;;;;;5012879;28;20263;-63
2021/09/14 15:00:44;;;;;;;7.07;4.60;;;;;;;;;;5012474;28;20121;-62
2021/09/14 15:03:09;;;;;;;11.55;4.70;;;;;;;;;;5012777;28;20113;-63
2021/09/14 15:05:35;;;;;;;7.50;5.10;;;;;;;;;;5012206;28;20026;-62
2021/09/14 15:08:00;;;;;;;12.98;5.30;;;;;;;;;;5012540;28;20021;-62
2021/09/14 15:10:25;;;;;;;8.90;4.90;;;;;;;;;;5012105;28;20038;-64
2021/09/14 15:12:52;;;;;;;8.27;4.85;;;;;;;;;;5012900;28;20077;-64
2021/09/14 15:15:17;;;;;;;7.55;4.40;;;;;;;;;;5009744;28;20018;-63
2021/09/14 15:17:42;;;;;;;8.50;5.05;;;;;;;;;;5016492;28;20358;-63
2021/09/14 15:20:08;;;;;;;7.70;5.13;;;;;;;;;;5015809;28;20113;-63